Bishopville, MD (21813)

12:49 PM EST on March 04, 2015 (GMT -0500)
The Cross Residence | Change Station
CLOSE
Current Station
Personal Weather Station
Location: Showell, MD
Elevation: 25 ft
Nearby Weather Stations

Elev 25 ft 38.39 °N, 75.23 °W | Updated 3 seconds ago

Overcast
Overcast
48.6 °F
Feels Like 49 °F
N
0.0
Wind Variable Wind from SW
Gusts 3.0 mph

Today
High -- | Low -- °F
--% Chance of Precip.
Yesterday
High -- | Low -- °F
Precip. -- in
6:28 AM 5:56 PM
Waxing Gibbous, 99% visible
Pressure 29.95 in
Visibility 3.0 miles
Clouds Overcast 300 ft
Windchill 49 °F
Dew Point 48 °F
Humidity 97%
Rainfall 0.07 in
Snow Depth Not available.
UV 2 out of 12
Pollen .60 out of 12
Air Quality Not available.
Flu Activity Not available.
SPECI KOXB 041723Z AUTO 23005KT 3SM BR OVC003 07/07 A2995 RMK AO2 RAE18 P0001 T00670067 TSNO

More Conditions Fewer Conditions

Pressure 29.95 in
Visibility 3.0 miles
Clouds Overcast 300 ft
Windchill 49 °F
Dew Point 48 °F
Humidity 97%
Rainfall 0.07 in
Snow Depth Not available.
UV 2 out of 12
Pollen .60 out of 12
Air Quality Not available.
Flu Activity Not available.
SPECI KOXB 041723Z AUTO 23005KT 3SM BR OVC003 07/07 A2995 RMK AO2 RAE18 P0001 T00670067 TSNO

More Conditions Fewer Conditions

10-Day Weather Forecast

Almanac

Astronomy

Mar. 04, 2015 Rise Set
Actual Time
Civil Twilight
Nautical Twilight
Astronomical Twilight
Moon
Length of Visible Light
Length of Day
Tomorrow will be .
, % of the Moon is Illuminated

Today's Extremes

State Highs State Lows

Community

WunderPhotos

Upload Photos

1,802,515 photos uploaded!

WunderBlogs® & News

Nearby

Air Quality

  Air Quality AQ Index Pollutant
Not available.

Snow Depth

Station Depth Elevation

Earthquake Activity

City Distance Mag. Time & Date
Minimum magnitude displayed is 2.5.

Coastal Water Temperatures

Place Temperature

Nearby Weather Stations